sensor_id;sensor_type;location;lat;lon;timestamp;pressure;altitude;pressure_sealevel;temperature;humidity
19884;BME280;10104;50.732;10.174;2023-06-26T00:01:26;97848.47;;;21.04;66.16
19884;BME280;10104;50.732;10.174;2023-06-26T00:03:51;97851.94;;;21.05;66.04
19884;BME280;10104;50.732;10.174;2023-06-26T00:06:13;97846.03;;;21.03;65.70
19884;BME280;10104;50.732;10.174;2023-06-26T00:08:34;97848.41;;;20.99;65.82
19884;BME280;10104;50.732;10.174;2023-06-26T00:10:56;97847.94;;;20.80;67.21
19884;BME280;10104;50.732;10.174;2023-06-26T00:13:17;97844.59;;;20.68;67.88
19884;BME280;10104;50.732;10.174;2023-06-26T00:15:39;97847.41;;;20.78;67.14
19884;BME280;10104;50.732;10.174;2023-06-26T00:18:00;97841.22;;;20.78;66.71
19884;BME280;10104;50.732;10.174;2023-06-26T00:20:24;97839.75;;;20.65;67.61
19884;BME280;10104;50.732;10.174;2023-06-26T00:22:46;97840.66;;;20.49;68.66
19884;BME280;10104;50.732;10.174;2023-06-26T00:25:08;97836.19;;;20.59;67.77
19884;BME280;10104;50.732;10.174;2023-06-26T00:27:29;97834.00;;;20.56;67.34
19884;BME280;10104;50.732;10.174;2023-06-26T00:29:51;97846.47;;;20.41;68.63
19884;BME280;10104;50.732;10.174;2023-06-26T00:32:14;97845.25;;;20.32;68.69
19884;BME280;10104;50.732;10.174;2023-06-26T00:34:35;97839.22;;;20.41;68.18
19884;BME280;10104;50.732;10.174;2023-06-26T00:36:57;97837.34;;;20.42;67.77
19884;BME280;10104;50.732;10.174;2023-06-26T00:39:18;97843.59;;;20.47;68.29
19884;BME280;10104;50.732;10.174;2023-06-26T00:41:40;97838.69;;;20.44;68.27
19884;BME280;10104;50.732;10.174;2023-06-26T00:44:02;97837.53;;;20.35;68.00
19884;BME280;10104;50.732;10.174;2023-06-26T00:46:24;97839.47;;;20.40;67.98
19884;BME280;10104;50.732;10.174;2023-06-26T00:48:47;97840.72;;;20.32;68.08
19884;BME280;10104;50.732;10.174;2023-06-26T00:51:09;97837.19;;;20.32;68.23
19884;BME280;10104;50.732;10.174;2023-06-26T00:53:32;97835.81;;;20.29;67.90
19884;BME280;10104;50.732;10.174;2023-06-26T00:55:54;97839.00;;;20.26;68.01
19884;BME280;10104;50.732;10.174;2023-06-26T00:58:16;97830.69;;;20.28;68.23
19884;BME280;10104;50.732;10.174;2023-06-26T01:00:38;97830.69;;;20.28;68.37
19884;BME280;10104;50.732;10.174;2023-06-26T01:03:00;97829.88;;;20.27;68.19
19884;BME280;10104;50.732;10.174;2023-06-26T01:05:22;97825.00;;;20.24;68.38
19884;BME280;10104;50.732;10.174;2023-06-26T01:07:43;97834.63;;;20.20;68.15
19884;BME280;10104;50.732;10.174;2023-06-26T01:10:06;97834.31;;;20.16;68.32
19884;BME280;10104;50.732;10.174;2023-06-26T01:12:28;97838.84;;;20.11;68.15
19884;BME280;10104;50.732;10.174;2023-06-26T01:14:49;97837.97;;;20.05;69.33
19884;BME280;10104;50.732;10.174;2023-06-26T01:17:11;97832.41;;;20.12;69.04
19884;BME280;10104;50.732;10.174;2023-06-26T01:19:36;97831.78;;;20.05;68.60
19884;BME280;10104;50.732;10.174;2023-06-26T01:22:28;97833.59;;;19.99;67.99
19884;BME280;10104;50.732;10.174;2023-06-26T01:25:10;97828.44;;;19.98;68.11
19884;BME280;10104;50.732;10.174;2023-06-26T01:27:34;97822.50;;;19.96;69.04
19884;BME280;10104;50.732;10.174;2023-06-26T01:29:56;97827.13;;;19.78;71.46
19884;BME280;10104;50.732;10.174;2023-06-26T01:32:18;97825.28;;;19.62;71.67
19884;BME280;10104;50.732;10.174;2023-06-26T01:34:40;97825.03;;;19.64;71.09
19884;BME280;10104;50.732;10.174;2023-06-26T01:37:02;97822.41;;;19.69;70.54
19884;BME280;10104;50.732;10.174;2023-06-26T01:39:24;97826.19;;;19.68;70.17
19884;BME280;10104;50.732;10.174;2023-06-26T01:41:46;97816.16;;;19.63;70.09
19884;BME280;10104;50.732;10.174;2023-06-26T01:46:53;97817.25;;;19.62;69.96
19884;BME280;10104;50.732;10.174;2023-06-26T01:52:46;97815.44;;;19.34;72.90
19884;BME280;10104;50.732;10.174;2023-06-26T01:55:32;97820.25;;;19.32;71.77
19884;BME280;10104;50.732;10.174;2023-06-26T01:57:58;97824.56;;;19.33;72.17
19884;BME280;10104;50.732;10.174;2023-06-26T02:00:20;97818.38;;;19.16;74.89
19884;BME280;10104;50.732;10.174;2023-06-26T02:02:42;97817.16;;;19.07;74.28
19884;BME280;10104;50.732;10.174;2023-06-26T02:05:04;97806.75;;;19.11;73.47
19884;BME280;10104;50.732;10.174;2023-06-26T02:07:26;97807.41;;;19.18;73.16
19884;BME280;10104;50.732;10.174;2023-06-26T02:09:47;97800.25;;;19.07;75.59
19884;BME280;10104;50.732;10.174;2023-06-26T02:12:09;97796.34;;;18.81;75.86
19884;BME280;10104;50.732;10.174;2023-06-26T02:14:30;97800.09;;;18.80;75.46
19884;BME280;10104;50.732;10.174;2023-06-26T02:16:52;97806.25;;;18.80;74.60
19884;BME280;10104;50.732;10.174;2023-06-26T02:19:13;97800.97;;;18.85;73.92
19884;BME280;10104;50.732;10.174;2023-06-26T02:21:42;97799.75;;;18.93;73.56
19884;BME280;10104;50.732;10.174;2023-06-26T02:24:05;97797.63;;;18.95;73.06
19884;BME280;10104;50.732;10.174;2023-06-26T02:26:26;97797.00;;;18.88;73.48
19884;BME280;10104;50.732;10.174;2023-06-26T02:28:48;97792.84;;;18.80;74.73
19884;BME280;10104;50.732;10.174;2023-06-26T02:31:09;97795.13;;;18.88;73.72
19884;BME280;10104;50.732;10.174;2023-06-26T02:33:31;97796.19;;;18.87;73.25
19884;BME280;10104;50.732;10.174;2023-06-26T02:35:53;97792.47;;;18.88;72.89
19884;BME280;10104;50.732;10.174;2023-06-26T02:38:14;97791.88;;;18.86;73.02
19884;BME280;10104;50.732;10.174;2023-06-26T02:40:36;97790.31;;;18.90;73.40
19884;BME280;10104;50.732;10.174;2023-06-26T02:42:59;97795.22;;;18.93;73.77
19884;BME280;10104;50.732;10.174;2023-06-26T02:45:20;97794.47;;;18.98;74.65
19884;BME280;10104;50.732;10.174;2023-06-26T02:47:42;97798.44;;;18.95;74.39
19884;BME280;10104;50.732;10.174;2023-06-26T02:50:04;97792.69;;;18.87;75.19
19884;BME280;10104;50.732;10.174;2023-06-26T02:52:25;97800.06;;;18.63;76.67
19884;BME280;10104;50.732;10.174;2023-06-26T02:54:47;97796.00;;;18.61;75.82
19884;BME280;10104;50.732;10.174;2023-06-26T02:57:08;97783.47;;;18.66;74.80
19884;BME280;10104;50.732;10.174;2023-06-26T02:59:30;97792.50;;;18.60;75.83
19884;BME280;10104;50.732;10.174;2023-06-26T03:01:51;97793.00;;;18.45;77.21
19884;BME280;10104;50.732;10.174;2023-06-26T03:04:13;97796.63;;;18.39;77.23
19884;BME280;10104;50.732;10.174;2023-06-26T03:06:36;97791.84;;;18.41;76.15
19884;BME280;10104;50.732;10.174;2023-06-26T03:08:58;97796.09;;;18.54;75.99
19884;BME280;10104;50.732;10.174;2023-06-26T03:11:19;97796.09;;;18.54;75.16
19884;BME280;10104;50.732;10.174;2023-06-26T03:13:41;97783.75;;;18.53;74.85
19884;BME280;10104;50.732;10.174;2023-06-26T03:16:03;97792.44;;;18.43;75.34
19884;BME280;10104;50.732;10.174;2023-06-26T03:18:25;97785.50;;;18.31;77.60
19884;BME280;10104;50.732;10.174;2023-06-26T03:20:47;97791.81;;;18.25;78.05
19884;BME280;10104;50.732;10.174;2023-06-26T03:23:09;97786.53;;;18.30;76.92
19884;BME280;10104;50.732;10.174;2023-06-26T03:25:30;97780.38;;;18.29;77.42
19884;BME280;10104;50.732;10.174;2023-06-26T03:27:52;97775.75;;;18.41;76.46
19884;BME280;10104;50.732;10.174;2023-06-26T03:30:14;97777.00;;;18.50;75.82
19884;BME280;10104;50.732;10.174;2023-06-26T03:32:35;97785.66;;;18.41;76.53
19884;BME280;10104;50.732;10.174;2023-06-26T03:34:57;97787.81;;;18.27;77.87
19884;BME280;10104;50.732;10.174;2023-06-26T03:37:19;97786.53;;;18.30;77.87
19884;BME280;10104;50.732;10.174;2023-06-26T03:39:40;97788.75;;;18.33;77.41
19884;BME280;10104;50.732;10.174;2023-06-26T03:42:02;97788.72;;;18.44;76.27
19884;BME280;10104;50.732;10.174;2023-06-26T03:44:24;97779.56;;;18.45;75.79
19884;BME280;10104;50.732;10.174;2023-06-26T03:46:45;97782.25;;;18.57;76.09
19884;BME280;10104;50.732;10.174;2023-06-26T03:49:07;97781.53;;;18.62;75.99
19884;BME280;10104;50.732;10.174;2023-06-26T03:51:31;97785.09;;;18.67;76.24
19884;BME280;10104;50.732;10.174;2023-06-26T03:53:52;97782.03;;;18.75;76.55
19884;BME280;10104;50.732;10.174;2023-06-26T03:56:14;97776.97;;;18.79;76.58
19884;BME280;10104;50.732;10.174;2023-06-26T03:58:35;97777.63;;;18.69;77.51
19884;BME280;10104;50.732;10.174;2023-06-26T04:00:57;97780.41;;;18.74;76.77
19884;BME280;10104;50.732;10.174;2023-06-26T04:03:19;97777.06;;;18.84;77.06
19884;BME280;10104;50.732;10.174;2023-06-26T04:05:40;97777.47;;;18.92;76.87
19884;BME280;10104;50.732;10.174;2023-06-26T04:08:02;97778.03;;;18.78;77.41
19884;BME280;10104;50.732;10.174;2023-06-26T04:10:23;97777.88;;;18.84;76.92
19884;BME280;10104;50.732;10.174;2023-06-26T04:12:45;97772.94;;;18.93;76.21
19884;BME280;10104;50.732;10.174;2023-06-26T04:15:07;97770.56;;;18.96;76.21
19884;BME280;10104;50.732;10.174;2023-06-26T04:17:29;97772.19;;;18.97;75.72
19884;BME280;10104;50.732;10.174;2023-06-26T04:19:50;97771.03;;;19.10;76.42
19884;BME280;10104;50.732;10.174;2023-06-26T04:22:12;97770.31;;;19.15;75.89
19884;BME280;10104;50.732;10.174;2023-06-26T04:24:33;97767.78;;;19.25;76.39
19884;BME280;10104;50.732;10.174;2023-06-26T04:26:55;97775.09;;;19.29;76.59
19884;BME280;10104;50.732;10.174;2023-06-26T04:29:18;97772.47;;;19.34;76.34
19884;BME280;10104;50.732;10.174;2023-06-26T04:31:39;97769.84;;;19.39;76.60
19884;BME280;10104;50.732;10.174;2023-06-26T04:34:01;97771.09;;;19.49;76.72
19884;BME280;10104;50.732;10.174;2023-06-26T04:36:23;97773.84;;;19.54;76.49
19884;BME280;10104;50.732;10.174;2023-06-26T04:38:44;97773.56;;;19.50;76.44
19884;BME280;10104;50.732;10.174;2023-06-26T04:41:06;97772.56;;;19.56;76.58
19884;BME280;10104;50.732;10.174;2023-06-26T04:43:27;97777.19;;;19.61;76.41
19884;BME280;10104;50.732;10.174;2023-06-26T04:45:49;97769.34;;;19.59;76.34
19884;BME280;10104;50.732;10.174;2023-06-26T04:48:10;97766.72;;;19.64;76.39
19884;BME280;10104;50.732;10.174;2023-06-26T04:50:32;97769.56;;;19.74;76.24
19884;BME280;10104;50.732;10.174;2023-06-26T04:52:55;97772.56;;;19.78;76.75
19884;BME280;10104;50.732;10.174;2023-06-26T04:55:17;97768.88;;;19.84;76.02
19884;BME280;10104;50.732;10.174;2023-06-26T04:57:38;97776.75;;;19.91;76.02
19884;BME280;10104;50.732;10.174;2023-06-26T05:00:00;97765.00;;;19.97;76.04
19884;BME280;10104;50.732;10.174;2023-06-26T05:02:21;97765.56;;;19.99;75.77
19884;BME280;10104;50.732;10.174;2023-06-26T05:04:43;97767.25;;;20.05;75.88
19884;BME280;10104;50.732;10.174;2023-06-26T05:07:04;97764.03;;;20.08;75.99
19884;BME280;10104;50.732;10.174;2023-06-26T05:09:26;97766.25;;;20.11;76.25
19884;BME280;10104;50.732;10.174;2023-06-26T05:11:48;97769.47;;;20.13;76.56
19884;BME280;10104;50.732;10.174;2023-06-26T05:14:09;97760.91;;;20.16;76.96
19884;BME280;10104;50.732;10.174;2023-06-26T05:16:31;97760.41;;;20.19;77.60
19884;BME280;10104;50.732;10.174;2023-06-26T05:18:52;97759.66;;;20.24;77.81
19884;BME280;10104;50.732;10.174;2023-06-26T05:21:16;97764.84;;;20.30;77.34
19884;BME280;10104;50.732;10.174;2023-06-26T05:23:37;97756.28;;;20.33;77.87
19884;BME280;10104;50.732;10.174;2023-06-26T05:26:00;97755.66;;;20.53;77.76
19884;BME280;10104;50.732;10.174;2023-06-26T05:28:23;97754.03;;;20.52;78.32
19884;BME280;10104;50.732;10.174;2023-06-26T05:30:46;97754.59;;;20.54;78.31
19884;BME280;10104;50.732;10.174;2023-06-26T05:33:10;97755.41;;;20.54;78.95
19884;BME280;10104;50.732;10.174;2023-06-26T05:35:33;97748.44;;;20.58;78.86
19884;BME280;10104;50.732;10.174;2023-06-26T05:37:57;97748.50;;;20.64;79.34
19884;BME280;10104;50.732;10.174;2023-06-26T05:40:18;97743.47;;;20.72;79.12
19884;BME280;10104;50.732;10.174;2023-06-26T05:42:40;97747.00;;;20.78;78.66
19884;BME280;10104;50.732;10.174;2023-06-26T05:45:02;97743.78;;;20.81;79.26
19884;BME280;10104;50.732;10.174;2023-06-26T05:47:23;97745.50;;;20.92;79.21
19884;BME280;10104;50.732;10.174;2023-06-26T05:49:45;97750.72;;;21.04;79.25
19884;BME280;10104;50.732;10.174;2023-06-26T05:52:07;97742.66;;;21.09;79.19
19884;BME280;10104;50.732;10.174;2023-06-26T05:54:29;97739.97;;;21.09;80.35
19884;BME280;10104;50.732;10.174;2023-06-26T05:56:56;97738.72;;;21.16;79.78
19884;BME280;10104;50.732;10.174;2023-06-26T05:59:20;97740.38;;;21.22;80.91
19884;BME280;10104;50.732;10.174;2023-06-26T06:01:43;97732.31;;;21.27;81.90
19884;BME280;10104;50.732;10.174;2023-06-26T06:04:04;97733.72;;;21.35;81.37
19884;BME280;10104;50.732;10.174;2023-06-26T06:06:26;97730.81;;;21.47;80.94
19884;BME280;10104;50.732;10.174;2023-06-26T06:08:47;97731.16;;;21.65;79.33
19884;BME280;10104;50.732;10.174;2023-06-26T06:11:10;97725.81;;;21.75;79.08
19884;BME280;10104;50.732;10.174;2023-06-26T06:13:32;97721.22;;;21.76;80.03
19884;BME280;10104;50.732;10.174;2023-06-26T06:15:53;97714.28;;;21.90;79.63
19884;BME280;10104;50.732;10.174;2023-06-26T06:18:16;97713.72;;;21.93;80.26
19884;BME280;10104;50.732;10.174;2023-06-26T06:20:37;97720.84;;;22.09;78.94
19884;BME280;10104;50.732;10.174;2023-06-26T06:22:59;97716.78;;;22.17;79.06
19884;BME280;10104;50.732;10.174;2023-06-26T06:25:21;97718.41;;;22.18;80.44
19884;BME280;10104;50.732;10.174;2023-06-26T06:27:42;97721.13;;;22.28;79.48
19884;BME280;10104;50.732;10.174;2023-06-26T06:30:05;97724.38;;;22.30;80.96
19884;BME280;10104;50.732;10.174;2023-06-26T06:32:29;97720.06;;;22.34;81.21
19884;BME280;10104;50.732;10.174;2023-06-26T06:34:50;97724.94;;;22.47;80.33
19884;BME280;10104;50.732;10.174;2023-06-26T06:37:12;97727.91;;;22.51;81.11
19884;BME280;10104;50.732;10.174;2023-06-26T06:39:33;97726.03;;;22.72;79.04
19884;BME280;10104;50.732;10.174;2023-06-26T06:41:55;97722.00;;;22.94;78.10
19884;BME280;10104;50.732;10.174;2023-06-26T06:44:16;97713.34;;;23.13;77.03
19884;BME280;10104;50.732;10.174;2023-06-26T06:46:38;97711.38;;;23.33;75.11
19884;BME280;10104;50.732;10.174;2023-06-26T06:49:00;97714.63;;;23.35;75.27
19884;BME280;10104;50.732;10.174;2023-06-26T06:51:22;97716.81;;;23.38;75.87
19884;BME280;10104;50.732;10.174;2023-06-26T06:53:43;97713.28;;;23.43;74.82
19884;BME280;10104;50.732;10.174;2023-06-26T06:56:05;97717.53;;;23.64;73.11
19884;BME280;10104;50.732;10.174;2023-06-26T06:58:26;97709.94;;;23.71;72.08
19884;BME280;10104;50.732;10.174;2023-06-26T07:00:48;97712.66;;;23.71;71.63
19884;BME280;10104;50.732;10.174;2023-06-26T07:03:10;97716.09;;;23.87;68.20
19884;BME280;10104;50.732;10.174;2023-06-26T07:05:31;97710.88;;;24.06;68.57
19884;BME280;10104;50.732;10.174;2023-06-26T07:07:53;97701.31;;;24.24;68.42
19884;BME280;10104;50.732;10.174;2023-06-26T07:10:15;97702.78;;;24.45;67.21
19884;BME280;10104;50.732;10.174;2023-06-26T07:12:36;97701.59;;;24.61;66.67
19884;BME280;10104;50.732;10.174;2023-06-26T07:14:58;97696.13;;;24.66;68.03
19884;BME280;10104;50.732;10.174;2023-06-26T07:17:19;97692.25;;;24.77;67.46
19884;BME280;10104;50.732;10.174;2023-06-26T07:19:42;97690.47;;;24.96;67.30
19884;BME280;10104;50.732;10.174;2023-06-26T07:22:03;97687.97;;;25.05;71.22
19884;BME280;10104;50.732;10.174;2023-06-26T07:24:25;97692.94;;;25.22;66.89
19884;BME280;10104;50.732;10.174;2023-06-26T07:26:47;97696.72;;;25.21;67.18
19884;BME280;10104;50.732;10.174;2023-06-26T07:29:11;97689.25;;;25.36;63.25
19884;BME280;10104;50.732;10.174;2023-06-26T07:31:32;97698.03;;;25.52;63.74
19884;BME280;10104;50.732;10.174;2023-06-26T07:33:54;97684.31;;;25.67;64.74
19884;BME280;10104;50.732;10.174;2023-06-26T07:36:15;97685.13;;;25.87;64.88
19884;BME280;10104;50.732;10.174;2023-06-26T07:38:37;97695.88;;;25.97;65.32
19884;BME280;10104;50.732;10.174;2023-06-26T07:40:58;97684.94;;;26.02;63.57
19884;BME280;10104;50.732;10.174;2023-06-26T07:43:20;97686.22;;;26.28;62.33
19884;BME280;10104;50.732;10.174;2023-06-26T07:45:41;97688.53;;;26.53;61.98
19884;BME280;10104;50.732;10.174;2023-06-26T07:48:03;97686.38;;;26.69;61.64
19884;BME280;10104;50.732;10.174;2023-06-26T07:50:25;97685.53;;;26.87;62.44
19884;BME280;10104;50.732;10.174;2023-06-26T07:52:47;97679.63;;;26.99;60.67
19884;BME280;10104;50.732;10.174;2023-06-26T07:55:08;97687.44;;;27.19;59.10
19884;BME280;10104;50.732;10.174;2023-06-26T07:57:30;97683.63;;;27.34;57.62
19884;BME280;10104;50.732;10.174;2023-06-26T07:59:53;97675.38;;;27.53;55.74
19884;BME280;10104;50.732;10.174;2023-06-26T08:02:15;97684.41;;;27.48;56.96
19884;BME280;10104;50.732;10.174;2023-06-26T08:04:36;97680.50;;;27.68;57.37
19884;BME280;10104;50.732;10.174;2023-06-26T08:06:59;97679.78;;;27.90;56.33
19884;BME280;10104;50.732;10.174;2023-06-26T08:09:22;97680.38;;;28.14;53.60
19884;BME280;10104;50.732;10.174;2023-06-26T08:11:45;97672.78;;;28.25;52.61
19884;BME280;10104;50.732;10.174;2023-06-26T08:14:06;97673.44;;;28.30;50.90
19884;BME280;10104;50.732;10.174;2023-06-26T08:16:28;97672.22;;;28.36;50.06
19884;BME280;10104;50.732;10.174;2023-06-26T08:18:49;97668.34;;;28.51;51.36
19884;BME280;10104;50.732;10.174;2023-06-26T08:21:11;97668.22;;;28.78;52.23
19884;BME280;10104;50.732;10.174;2023-06-26T08:23:32;97665.69;;;28.82;50.01
19884;BME280;10104;50.732;10.174;2023-06-26T08:25:54;97667.16;;;28.88;48.32
19884;BME280;10104;50.732;10.174;2023-06-26T08:28:15;97668.38;;;28.60;44.12
19884;BME280;10104;50.732;10.174;2023-06-26T08:30:36;97671.88;;;28.74;40.86
19884;BME280;10104;50.732;10.174;2023-06-26T08:32:59;97659.63;;;28.71;39.08
19884;BME280;10104;50.732;10.174;2023-06-26T08:35:20;97652.84;;;28.60;37.51
19884;BME280;10104;50.732;10.174;2023-06-26T08:37:42;97655.22;;;28.75;41.29
19884;BME280;10104;50.732;10.174;2023-06-26T08:40:04;97652.09;;;28.90;38.76
19884;BME280;10104;50.732;10.174;2023-06-26T08:42:26;97651.03;;;29.00;37.10
19884;BME280;10104;50.732;10.174;2023-06-26T08:44:47;97664.25;;;29.15;39.99
19884;BME280;10104;50.732;10.174;2023-06-26T08:47:22;97657.69;;;29.16;38.55
19884;BME280;10104;50.732;10.174;2023-06-26T08:49:53;97657.69;;;29.16;39.50
19884;BME280;10104;50.732;10.174;2023-06-26T08:52:20;97662.78;;;29.40;39.39
19884;BME280;10104;50.732;10.174;2023-06-26T08:54:46;97667.63;;;29.43;36.93
19884;BME280;10104;50.732;10.174;2023-06-26T08:57:09;97668.75;;;29.51;37.94
19884;BME280;10104;50.732;10.174;2023-06-26T08:59:31;97666.34;;;29.49;37.46
19884;BME280;10104;50.732;10.174;2023-06-26T09:01:53;97667.28;;;29.45;38.25
19884;BME280;10104;50.732;10.174;2023-06-26T09:04:14;97660.69;;;29.46;36.32
19884;BME280;10104;50.732;10.174;2023-06-26T09:06:36;97662.16;;;29.43;37.54
19884;BME280;10104;50.732;10.174;2023-06-26T09:08:57;97658.28;;;29.44;38.26
19884;BME280;10104;50.732;10.174;2023-06-26T09:11:19;97660.34;;;29.39;36.68
19884;BME280;10104;50.732;10.174;2023-06-26T09:13:41;97666.69;;;29.65;37.30
19884;BME280;10104;50.732;10.174;2023-06-26T09:16:07;97663.47;;;29.54;38.45
19884;BME280;10104;50.732;10.174;2023-06-26T09:18:29;97660.94;;;29.66;37.00
19884;BME280;10104;50.732;10.174;2023-06-26T09:20:51;97657.38;;;29.57;37.16
19884;BME280;10104;50.732;10.174;2023-06-26T09:23:15;97654.63;;;29.57;37.33
19884;BME280;10104;50.732;10.174;2023-06-26T09:25:38;97654.50;;;29.71;38.57
19884;BME280;10104;50.732;10.174;2023-06-26T09:28:03;97659.84;;;29.85;37.37
19884;BME280;10104;50.732;10.174;2023-06-26T09:30:25;97656.63;;;29.74;35.88
19884;BME280;10104;50.732;10.174;2023-06-26T09:32:47;97654.59;;;29.97;37.25
19884;BME280;10104;50.732;10.174;2023-06-26T09:35:09;97651.22;;;30.00;36.90
19884;BME280;10104;50.732;10.174;2023-06-26T09:37:32;97644.78;;;30.13;37.34
19884;BME280;10104;50.732;10.174;2023-06-26T09:39:53;97646.41;;;30.40;36.95
19884;BME280;10104;50.732;10.174;2023-06-26T09:42:15;97650.28;;;30.56;38.15
19884;BME280;10104;50.732;10.174;2023-06-26T09:44:43;97651.75;;;30.53;37.54
19884;BME280;10104;50.732;10.174;2023-06-26T09:47:05;97639.16;;;30.44;36.72
19884;BME280;10104;50.732;10.174;2023-06-26T09:49:27;97635.31;;;30.45;36.13
19884;BME280;10104;50.732;10.174;2023-06-26T09:51:49;97628.41;;;30.47;37.07
19884;BME280;10104;50.732;10.174;2023-06-26T09:54:11;97614.56;;;30.44;35.98
19884;BME280;10104;50.732;10.174;2023-06-26T09:56:33;97615.22;;;30.58;35.94
19884;BME280;10104;50.732;10.174;2023-06-26T09:58:56;97615.00;;;30.80;36.70
19884;BME280;10104;50.732;10.174;2023-06-26T10:01:18;97611.06;;;31.07;36.91
19884;BME280;10104;50.732;10.174;2023-06-26T10:03:40;97604.59;;;31.20;38.08
19884;BME280;10104;50.732;10.174;2023-06-26T10:06:02;97593.69;;;31.03;35.64
19884;BME280;10104;50.732;10.174;2023-06-26T10:08:25;97599.22;;;31.32;35.85
19884;BME280;10104;50.732;10.174;2023-06-26T10:10:48;97604.16;;;31.39;34.52
19884;BME280;10104;50.732;10.174;2023-06-26T10:13:18;97608.81;;;31.47;34.72
19884;BME280;10104;50.732;10.174;2023-06-26T10:15:44;97595.72;;;31.53;35.52
19884;BME280;10104;50.732;10.174;2023-06-26T10:18:07;97594.34;;;31.67;36.82
19884;BME280;10104;50.732;10.174;2023-06-26T10:20:29;97599.59;;;31.81;33.92
19884;BME280;10104;50.732;10.174;2023-06-26T10:22:51;97593.25;;;31.89;33.18
19884;BME280;10104;50.732;10.174;2023-06-26T10:25:18;97592.75;;;32.29;34.00
19884;BME280;10104;50.732;10.174;2023-06-26T10:27:55;97586.28;;;32.66;33.27
19884;BME280;10104;50.732;10.174;2023-06-26T10:30:22;97602.81;;;33.03;32.71
19884;BME280;10104;50.732;10.174;2023-06-26T10:32:46;97596.91;;;33.49;31.92
19884;BME280;10104;50.732;10.174;2023-06-26T10:35:10;97590.16;;;33.71;30.88
19884;BME280;10104;50.732;10.174;2023-06-26T10:37:49;97585.91;;;34.13;31.25
19884;BME280;10104;50.732;10.174;2023-06-26T10:40:12;97587.63;;;34.30;30.17
19884;BME280;10104;50.732;10.174;2023-06-26T10:42:36;97596.81;;;34.10;30.73
19884;BME280;10104;50.732;10.174;2023-06-26T10:45:15;97580.66;;;34.08;30.17
19884;BME280;10104;50.732;10.174;2023-06-26T10:47:39;97573.59;;;34.35;31.24
19884;BME280;10104;50.732;10.174;2023-06-26T10:50:19;97590.78;;;34.04;30.50
19884;BME280;10104;50.732;10.174;2023-06-26T10:52:44;97592.59;;;34.13;30.13
19884;BME280;10104;50.732;10.174;2023-06-26T10:55:08;97581.22;;;34.14;28.85
19884;BME280;10104;50.732;10.174;2023-06-26T10:57:30;97582.72;;;34.11;28.94
19884;BME280;10104;50.732;10.174;2023-06-26T11:00:08;97577.66;;;34.13;29.84
19884;BME280;10104;50.732;10.174;2023-06-26T11:02:47;97572.81;;;34.50;30.58
19884;BME280;10104;50.732;10.174;2023-06-26T11:05:08;97565.41;;;33.83;32.84
19884;BME280;10104;50.732;10.174;2023-06-26T11:07:30;97567.59;;;33.78;30.91
19884;BME280;10104;50.732;10.174;2023-06-26T11:10:17;97582.69;;;33.84;32.33
19884;BME280;10104;50.732;10.174;2023-06-26T11:12:41;97579.41;;;33.54;31.49
19884;BME280;10104;50.732;10.174;2023-06-26T11:15:15;97572.06;;;33.82;32.36
19884;BME280;10104;50.732;10.174;2023-06-26T11:17:37;97583.47;;;33.96;32.18
19884;BME280;10104;50.732;10.174;2023-06-26T11:19:59;97574.53;;;33.99;32.73
19884;BME280;10104;50.732;10.174;2023-06-26T11:22:24;97586.78;;;33.90;32.35
19884;BME280;10104;50.732;10.174;2023-06-26T11:24:46;97584.59;;;33.95;32.89
19884;BME280;10104;50.732;10.174;2023-06-26T11:27:07;97591.50;;;33.89;32.29
19884;BME280;10104;50.732;10.174;2023-06-26T11:29:30;97590.69;;;33.89;31.71
19884;BME280;10104;50.732;10.174;2023-06-26T11:31:58;97588.22;;;34.24;32.46
19884;BME280;10104;50.732;10.174;2023-06-26T11:34:22;97606.47;;;34.44;32.97
19884;BME280;10104;50.732;10.174;2023-06-26T11:36:44;97593.88;;;34.43;30.73
19884;BME280;10104;50.732;10.174;2023-06-26T11:39:08;97603.81;;;34.63;31.43
19884;BME280;10104;50.732;10.174;2023-06-26T11:41:31;97595.31;;;35.12;30.06
19884;BME280;10104;50.732;10.174;2023-06-26T11:43:53;97614.06;;;35.38;31.27
19884;BME280;10104;50.732;10.174;2023-06-26T11:46:17;97632.81;;;34.73;32.09
19884;BME280;10104;50.732;10.174;2023-06-26T11:48:39;97635.13;;;34.71;33.23
19884;BME280;10104;50.732;10.174;2023-06-26T11:51:04;97634.47;;;34.34;33.78
19884;BME280;10104;50.732;10.174;2023-06-26T11:53:25;97639.78;;;35.14;33.01
19884;BME280;10104;50.732;10.174;2023-06-26T11:55:47;97636.94;;;34.79;31.77
19884;BME280;10104;50.732;10.174;2023-06-26T11:58:08;97636.25;;;34.42;32.67
19884;BME280;10104;50.732;10.174;2023-06-26T12:00:30;97643.47;;;33.58;33.64
19884;BME280;10104;50.732;10.174;2023-06-26T12:02:53;97641.19;;;33.23;34.15
19884;BME280;10104;50.732;10.174;2023-06-26T12:05:16;97639.22;;;33.12;34.79
19884;BME280;10104;50.732;10.174;2023-06-26T12:07:38;97649.44;;;32.58;34.84
19884;BME280;10104;50.732;10.174;2023-06-26T12:10:00;97641.72;;;32.18;36.12
19884;BME280;10104;50.732;10.174;2023-06-26T12:12:22;97642.91;;;32.29;35.88
19884;BME280;10104;50.732;10.174;2023-06-26T12:14:44;97648.78;;;32.93;35.26
19884;BME280;10104;50.732;10.174;2023-06-26T12:17:10;97655.06;;;33.39;35.37
19884;BME280;10104;50.732;10.174;2023-06-26T12:19:33;97651.53;;;32.93;35.30
19884;BME280;10104;50.732;10.174;2023-06-26T12:21:55;97654.25;;;33.26;35.68
19884;BME280;10104;50.732;10.174;2023-06-26T12:24:21;97646.69;;;33.23;35.49
19884;BME280;10104;50.732;10.174;2023-06-26T12:26:49;97656.53;;;32.91;36.66
19884;BME280;10104;50.732;10.174;2023-06-26T12:29:15;97653.81;;;32.59;35.86
19884;BME280;10104;50.732;10.174;2023-06-26T12:31:43;97658.75;;;32.44;37.35
19884;BME280;10104;50.732;10.174;2023-06-26T12:34:09;97654.69;;;32.50;37.40